sensor_id;sensor_type;location;lat;lon;timestamp;pressure;altitude;pressure_sealevel;temperature;humidity
18697;BME280;22617;43.690;27.956;2023-02-01T00:04:55;98749.19;;;0.19;85.49
18697;BME280;22617;43.690;27.956;2023-02-01T00:09:58;98759.44;;;0.19;85.79
18697;BME280;22617;43.690;27.956;2023-02-01T00:15:04;98763.41;;;0.10;85.50
18697;BME280;22617;43.690;27.956;2023-02-01T00:20:09;98758.19;;;0.32;85.46
18697;BME280;22617;43.690;27.956;2023-02-01T00:25:13;98750.06;;;0.20;85.10
18697;BME280;22617;43.690;27.956;2023-02-01T00:30:18;98754.44;;;0.22;85.53
18697;BME280;22617;43.690;27.956;2023-02-01T00:35:22;98753.34;;;0.16;84.96
18697;BME280;22617;43.690;27.956;2023-02-01T00:40:26;98746.63;;;0.19;85.43
18697;BME280;22617;43.690;27.956;2023-02-01T00:45:31;98744.94;;;0.20;85.05
18697;BME280;22617;43.690;27.956;2023-02-01T00:50:34;98749.47;;;0.27;84.88
18697;BME280;22617;43.690;27.956;2023-02-01T00:55:37;98750.19;;;0.23;84.61
18697;BME280;22617;43.690;27.956;2023-02-01T01:00:42;98751.94;;;0.24;84.49
18697;BME280;22617;43.690;27.956;2023-02-01T01:05:47;98750.94;;;0.20;84.56
18697;BME280;22617;43.690;27.956;2023-02-01T01:10:51;98760.16;;;0.14;84.58
18697;BME280;22617;43.690;27.956;2023-02-01T01:15:56;98754.19;;;0.15;84.79
18697;BME280;22617;43.690;27.956;2023-02-01T01:21:00;98751.22;;;0.03;84.80
18697;BME280;22617;43.690;27.956;2023-02-01T01:26:07;98752.41;;;0.12;85.02
18697;BME280;22617;43.690;27.956;2023-02-01T01:31:15;98753.34;;;0.14;85.08
18697;BME280;22617;43.690;27.956;2023-02-01T01:36:20;98748.88;;;0.09;84.62
18697;BME280;22617;43.690;27.956;2023-02-01T01:41:25;98742.81;;;0.07;84.46
18697;BME280;22617;43.690;27.956;2023-02-01T01:46:35;98752.59;;;0.18;84.41
18697;BME280;22617;43.690;27.956;2023-02-01T01:51:43;98740.34;;;0.10;84.35
18697;BME280;22617;43.690;27.956;2023-02-01T01:56:50;98741.91;;;0.31;84.26
18697;BME280;22617;43.690;27.956;2023-02-01T02:01:56;98750.91;;;0.19;83.42
18697;BME280;22617;43.690;27.956;2023-02-01T02:07:01;98752.50;;;0.15;83.74
18697;BME280;22617;43.690;27.956;2023-02-01T02:12:06;98750.84;;;0.17;83.88
18697;BME280;22617;43.690;27.956;2023-02-01T02:17:24;98749.63;;;0.06;84.33
18697;BME280;22617;43.690;27.956;2023-02-01T02:23:02;98741.91;;;0.05;84.01
18697;BME280;22617;43.690;27.956;2023-02-01T02:28:24;98742.72;;;0.04;84.06
18697;BME280;22617;43.690;27.956;2023-02-01T02:33:46;98751.13;;;-0.01;83.86
18697;BME280;22617;43.690;27.956;2023-02-01T02:38:56;98758.50;;;-0.10;83.65
18697;BME280;22617;43.690;27.956;2023-02-01T02:44:09;98747.34;;;-0.12;84.07
18697;BME280;22617;43.690;27.956;2023-02-01T02:49:36;98748.28;;;-0.10;84.25
18697;BME280;22617;43.690;27.956;2023-02-01T02:54:46;98754.16;;;-0.12;84.13
18697;BME280;22617;43.690;27.956;2023-02-01T02:59:52;98757.50;;;-0.15;83.87
18697;BME280;22617;43.690;27.956;2023-02-01T03:05:15;98756.50;;;-0.18;83.84
18697;BME280;22617;43.690;27.956;2023-02-01T03:10:26;98751.22;;;-0.23;83.68
18697;BME280;22617;43.690;27.956;2023-02-01T03:15:37;98740.06;;;-0.25;83.76
18697;BME280;22617;43.690;27.956;2023-02-01T03:20:45;98742.78;;;-0.20;83.85
18697;BME280;22617;43.690;27.956;2023-02-01T03:25:52;98741.91;;;-0.21;84.04
18697;BME280;22617;43.690;27.956;2023-02-01T03:30:58;98744.53;;;-0.19;84.58
18697;BME280;22617;43.690;27.956;2023-02-01T03:36:15;98758.91;;;-0.23;84.47
18697;BME280;22617;43.690;27.956;2023-02-01T03:41:27;98760.66;;;-0.22;84.61
18697;BME280;22617;43.690;27.956;2023-02-01T03:46:36;98756.63;;;-0.14;84.62
18697;BME280;22617;43.690;27.956;2023-02-01T03:51:43;98770.22;;;-0.16;84.57
18697;BME280;22617;43.690;27.956;2023-02-01T03:56:48;98764.44;;;-0.11;85.07
18697;BME280;22617;43.690;27.956;2023-02-01T04:01:55;98766.88;;;-0.14;84.79
18697;BME280;22617;43.690;27.956;2023-02-01T04:07:00;98766.72;;;-0.18;84.39
18697;BME280;22617;43.690;27.956;2023-02-01T04:12:04;98770.28;;;-0.15;84.57
18697;BME280;22617;43.690;27.956;2023-02-01T04:17:08;98775.91;;;-0.25;84.32
18697;BME280;22617;43.690;27.956;2023-02-01T04:22:12;98771.06;;;-0.41;84.23
18697;BME280;22617;43.690;27.956;2023-02-01T04:27:15;98783.75;;;-0.44;84.16
18697;BME280;22617;43.690;27.956;2023-02-01T04:32:18;98790.91;;;-0.59;83.71
18697;BME280;22617;43.690;27.956;2023-02-01T04:37:24;98794.81;;;-0.69;83.67
18697;BME280;22617;43.690;27.956;2023-02-01T04:42:28;98804.06;;;-0.72;84.13
18697;BME280;22617;43.690;27.956;2023-02-01T04:47:31;98798.63;;;-0.80;83.40
18697;BME280;22617;43.690;27.956;2023-02-01T04:52:37;98815.19;;;-0.70;83.93
18697;BME280;22617;43.690;27.956;2023-02-01T04:57:40;98795.44;;;-0.74;84.33
18697;BME280;22617;43.690;27.956;2023-02-01T05:02:44;98806.25;;;-0.81;83.95
18697;BME280;22617;43.690;27.956;2023-02-01T05:07:49;98811.16;;;-0.88;84.80
18697;BME280;22617;43.690;27.956;2023-02-01T05:12:52;98816.84;;;-0.95;85.21
18697;BME280;22617;43.690;27.956;2023-02-01T05:18:13;98819.31;;;-0.98;85.65
18697;BME280;22617;43.690;27.956;2023-02-01T05:23:18;98810.16;;;-0.91;85.25
18697;BME280;22617;43.690;27.956;2023-02-01T05:28:21;98812.19;;;-1.05;85.67
18697;BME280;22617;43.690;27.956;2023-02-01T05:33:25;98809.41;;;-0.89;85.46
18697;BME280;22617;43.690;27.956;2023-02-01T05:38:30;98817.78;;;-0.93;85.51
18697;BME280;22617;43.690;27.956;2023-02-01T05:43:33;98819.41;;;-0.95;86.10
18697;BME280;22617;43.690;27.956;2023-02-01T05:48:37;98830.63;;;-0.91;86.39
18697;BME280;22617;43.690;27.956;2023-02-01T05:53:43;98847.06;;;-0.84;86.61
18697;BME280;22617;43.690;27.956;2023-02-01T05:58:46;98849.25;;;-0.73;86.64
18697;BME280;22617;43.690;27.956;2023-02-01T06:03:50;98850.97;;;-0.72;86.53
18697;BME280;22617;43.690;27.956;2023-02-01T06:08:55;98841.75;;;-0.67;85.91
18697;BME280;22617;43.690;27.956;2023-02-01T06:13:58;98842.31;;;-0.53;85.53
18697;BME280;22617;43.690;27.956;2023-02-01T06:19:02;98833.53;;;-0.36;85.09
18697;BME280;22617;43.690;27.956;2023-02-01T06:24:08;98841.06;;;-0.17;84.26
18697;BME280;22617;43.690;27.956;2023-02-01T06:29:13;98836.47;;;-0.02;83.52
18697;BME280;22617;43.690;27.956;2023-02-01T06:34:16;98843.31;;;0.23;83.25
18697;BME280;22617;43.690;27.956;2023-02-01T06:39:24;98841.50;;;0.46;82.95
18697;BME280;22617;43.690;27.956;2023-02-01T06:44:29;98847.75;;;0.54;81.73
18697;BME280;22617;43.690;27.956;2023-02-01T06:49:33;98849.41;;;0.52;81.20
18697;BME280;22617;43.690;27.956;2023-02-01T06:54:37;98842.13;;;0.91;80.55
18697;BME280;22617;43.690;27.956;2023-02-01T06:59:41;98840.78;;;1.04;80.22
18697;BME280;22617;43.690;27.956;2023-02-01T07:04:45;98841.00;;;1.10;79.18
18697;BME280;22617;43.690;27.956;2023-02-01T07:09:49;98841.34;;;1.22;79.09
18697;BME280;22617;43.690;27.956;2023-02-01T07:14:53;98851.06;;;1.32;79.05
18697;BME280;22617;43.690;27.956;2023-02-01T07:19:56;98859.22;;;1.19;78.58
18697;BME280;22617;43.690;27.956;2023-02-01T07:25:04;98862.28;;;1.07;79.00
18697;BME280;22617;43.690;27.956;2023-02-01T07:30:09;98863.50;;;1.18;79.43
18697;BME280;22617;43.690;27.956;2023-02-01T07:35:13;98863.34;;;1.42;79.09
18697;BME280;22617;43.690;27.956;2023-02-01T07:40:18;98863.34;;;1.42;79.09
18697;BME280;22617;43.690;27.956;2023-02-01T07:45:26;98865.44;;;1.85;78.82
18697;BME280;22617;43.690;27.956;2023-02-01T07:50:30;98871.22;;;2.08;78.41
18697;BME280;22617;43.690;27.956;2023-02-01T07:55:37;98867.88;;;2.10;78.26
18697;BME280;22617;43.690;27.956;2023-02-01T08:00:41;98869.34;;;2.34;78.36
18697;BME280;22617;43.690;27.956;2023-02-01T08:06:02;98868.66;;;2.41;77.96
18697;BME280;22617;43.690;27.956;2023-02-01T08:11:07;98862.91;;;2.49;78.47
18697;BME280;22617;43.690;27.956;2023-02-01T08:16:11;98863.44;;;2.71;78.42
18697;BME280;22617;43.690;27.956;2023-02-01T08:21:17;98861.66;;;3.04;78.04
18697;BME280;22617;43.690;27.956;2023-02-01T08:26:24;98876.28;;;3.05;77.40
18697;BME280;22617;43.690;27.956;2023-02-01T08:31:29;98879.00;;;3.13;76.67
18697;BME280;22617;43.690;27.956;2023-02-01T08:36:33;98873.84;;;3.48;76.21
18697;BME280;22617;43.690;27.956;2023-02-01T08:41:38;98867.66;;;3.81;75.69
18697;BME280;22617;43.690;27.956;2023-02-01T08:46:41;98872.59;;;4.12;74.23
18697;BME280;22617;43.690;27.956;2023-02-01T08:51:45;98866.31;;;4.45;73.60
18697;BME280;22617;43.690;27.956;2023-02-01T08:56:50;98862.13;;;4.53;73.04
18697;BME280;22617;43.690;27.956;2023-02-01T09:01:55;98863.59;;;4.38;73.60
18697;BME280;22617;43.690;27.956;2023-02-01T09:06:59;98861.66;;;4.75;72.04
18697;BME280;22617;43.690;27.956;2023-02-01T09:12:04;98857.13;;;5.14;71.98
18697;BME280;22617;43.690;27.956;2023-02-01T09:17:08;98864.25;;;5.31;70.83
18697;BME280;22617;43.690;27.956;2023-02-01T09:22:11;98861.25;;;5.60;71.38
18697;BME280;22617;43.690;27.956;2023-02-01T09:27:19;98846.09;;;5.88;70.45
18697;BME280;22617;43.690;27.956;2023-02-01T09:32:23;98856.59;;;6.01;70.01
18697;BME280;22617;43.690;27.956;2023-02-01T09:37:27;98853.63;;;5.72;70.24
18697;BME280;22617;43.690;27.956;2023-02-01T09:42:47;98843.31;;;5.74;69.62
18697;BME280;22617;43.690;27.956;2023-02-01T09:47:59;98832.66;;;6.18;69.83
18697;BME280;22617;43.690;27.956;2023-02-01T09:53:11;98824.22;;;6.37;67.13
18697;BME280;22617;43.690;27.956;2023-02-01T09:58:20;98809.69;;;6.54;67.56
18697;BME280;22617;43.690;27.956;2023-02-01T10:03:29;98804.97;;;7.09;67.52
18697;BME280;22617;43.690;27.956;2023-02-01T10:08:39;98803.97;;;6.90;66.94
18697;BME280;22617;43.690;27.956;2023-02-01T10:13:54;98796.44;;;7.29;66.14
18697;BME280;22617;43.690;27.956;2023-02-01T10:19:15;98789.75;;;7.75;64.72
18697;BME280;22617;43.690;27.956;2023-02-01T10:24:37;98772.28;;;7.36;65.23
18697;BME280;22617;43.690;27.956;2023-02-01T10:29:45;98782.63;;;7.29;64.07
18697;BME280;22617;43.690;27.956;2023-02-01T10:34:52;98781.81;;;7.37;64.01
18697;BME280;22617;43.690;27.956;2023-02-01T10:40:00;98762.09;;;7.83;65.75
18697;BME280;22617;43.690;27.956;2023-02-01T10:45:11;98755.75;;;7.16;65.21
18697;BME280;22617;43.690;27.956;2023-02-01T10:50:29;98754.22;;;7.52;64.97
18697;BME280;22617;43.690;27.956;2023-02-01T10:55:39;98746.56;;;7.96;63.80
18697;BME280;22617;43.690;27.956;2023-02-01T11:00:47;98743.13;;;8.16;62.99
18697;BME280;22617;43.690;27.956;2023-02-01T11:05:51;98749.69;;;7.10;63.74
18697;BME280;22617;43.690;27.956;2023-02-01T11:11:00;98743.81;;;7.53;64.18
18697;BME280;22617;43.690;27.956;2023-02-01T11:16:06;98741.47;;;8.47;63.35
18697;BME280;22617;43.690;27.956;2023-02-01T11:21:10;98737.13;;;8.34;61.13
18697;BME280;22617;43.690;27.956;2023-02-01T11:26:21;98750.94;;;8.15;60.52
18697;BME280;22617;43.690;27.956;2023-02-01T11:31:28;98742.25;;;8.11;60.87
18697;BME280;22617;43.690;27.956;2023-02-01T11:36:33;98732.72;;;7.94;61.58
18697;BME280;22617;43.690;27.956;2023-02-01T11:41:43;98730.13;;;7.89;59.99
18697;BME280;22617;43.690;27.956;2023-02-01T11:46:48;98724.91;;;7.84;58.80
18697;BME280;22617;43.690;27.956;2023-02-01T11:52:06;98719.78;;;8.09;59.22
18697;BME280;22617;43.690;27.956;2023-02-01T11:57:25;98719.75;;;8.03;58.80
18697;BME280;22617;43.690;27.956;2023-02-01T12:02:57;98713.72;;;8.13;58.53
18697;BME280;22617;43.690;27.956;2023-02-01T12:08:16;98710.25;;;8.09;59.17
18697;BME280;22617;43.690;27.956;2023-02-01T12:13:33;98709.31;;;7.78;59.97
18697;BME280;22617;43.690;27.956;2023-02-01T12:18:54;98710.19;;;7.77;59.99
18697;BME280;22617;43.690;27.956;2023-02-01T12:24:41;98712.81;;;8.06;60.77
18697;BME280;22617;43.690;27.956;2023-02-01T12:29:57;98712.78;;;7.74;60.96
18697;BME280;22617;43.690;27.956;2023-02-01T12:35:15;98711.84;;;7.47;60.81
18697;BME280;22617;43.690;27.956;2023-02-01T12:40:34;98691.19;;;7.81;61.71
18697;BME280;22617;43.690;27.956;2023-02-01T12:45:45;98689.41;;;7.59;61.52
18697;BME280;22617;43.690;27.956;2023-02-01T12:50:54;98696.22;;;7.30;62.40
18697;BME280;22617;43.690;27.956;2023-02-01T12:56:02;98685.91;;;7.42;63.00
18697;BME280;22617;43.690;27.956;2023-02-01T13:01:12;98697.06;;;7.23;63.39
18697;BME280;22617;43.690;27.956;2023-02-01T13:06:21;98693.56;;;7.18;63.48
18697;BME280;22617;43.690;27.956;2023-02-01T13:11:29;98685.75;;;7.09;64.86
18697;BME280;22617;43.690;27.956;2023-02-01T13:16:35;98687.41;;;6.90;64.44
18697;BME280;22617;43.690;27.956;2023-02-01T13:21:46;98682.19;;;6.84;65.46
18697;BME280;22617;43.690;27.956;2023-02-01T13:26:53;98683.88;;;6.79;65.90
18697;BME280;22617;43.690;27.956;2023-02-01T13:32:08;98686.28;;;6.53;65.56
18697;BME280;22617;43.690;27.956;2023-02-01T13:37:31;98689.53;;;6.23;65.82
18697;BME280;22617;43.690;27.956;2023-02-01T13:42:44;98685.94;;;6.06;66.72
18697;BME280;22617;43.690;27.956;2023-02-01T13:47:52;98688.50;;;6.03;66.40
18697;BME280;22617;43.690;27.956;2023-02-01T13:52:59;98691.69;;;5.79;67.52
18697;BME280;22617;43.690;27.956;2023-02-01T13:58:09;98695.91;;;5.69;68.18
18697;BME280;22617;43.690;27.956;2023-02-01T14:03:18;98700.25;;;5.74;68.46
18697;BME280;22617;43.690;27.956;2023-02-01T14:08:37;98706.50;;;5.18;69.08
18697;BME280;22617;43.690;27.956;2023-02-01T14:13:41;98705.16;;;4.81;70.92
18697;BME280;22617;43.690;27.956;2023-02-01T14:19:07;98707.66;;;4.77;71.99
18697;BME280;22617;43.690;27.956;2023-02-01T14:24:20;98709.94;;;4.56;72.64
18697;BME280;22617;43.690;27.956;2023-02-01T14:29:29;98704.63;;;4.47;72.67
18697;BME280;22617;43.690;27.956;2023-02-01T14:34:39;98706.47;;;4.54;72.60
18697;BME280;22617;43.690;27.956;2023-02-01T14:39:58;98703.91;;;4.54;72.56
18697;BME280;22617;43.690;27.956;2023-02-01T14:50:47;98707.06;;;4.37;73.76
18697;BME280;22617;43.690;27.956;2023-02-01T14:55:56;98720.16;;;4.48;74.83
18697;BME280;22617;43.690;27.956;2023-02-01T15:01:05;98722.78;;;4.53;74.54
18697;BME280;22617;43.690;27.956;2023-02-01T15:06:21;98720.97;;;4.46;75.47
18697;BME280;22617;43.690;27.956;2023-02-01T15:11:27;98720.91;;;4.41;75.67
18697;BME280;22617;43.690;27.956;2023-02-01T15:16:31;98722.75;;;4.50;75.54
18697;BME280;22617;43.690;27.956;2023-02-01T15:21:44;98718.44;;;4.49;75.27
18697;BME280;22617;43.690;27.956;2023-02-01T15:26:49;98720.81;;;4.35;75.53
18697;BME280;22617;43.690;27.956;2023-02-01T15:31:53;98715.50;;;4.27;75.91
18697;BME280;22617;43.690;27.956;2023-02-01T15:37:04;98719.88;;;4.30;75.74
18697;BME280;22617;43.690;27.956;2023-02-01T15:42:16;98713.59;;;4.14;76.58
18697;BME280;22617;43.690;27.956;2023-02-01T15:47:25;98715.28;;;4.12;76.57
18697;BME280;22617;43.690;27.956;2023-02-01T15:52:34;98720.19;;;3.99;76.32
18697;BME280;22617;43.690;27.956;2023-02-01T15:57:40;98716.53;;;3.86;76.87
18697;BME280;22617;43.690;27.956;2023-02-01T16:02:51;98720.84;;;3.87;77.26
18697;BME280;22617;43.690;27.956;2023-02-01T16:07:57;98721.53;;;3.77;77.95
18697;BME280;22617;43.690;27.956;2023-02-01T16:13:07;98721.72;;;3.89;78.46
18697;BME280;22617;43.690;27.956;2023-02-01T16:18:12;98729.13;;;3.69;78.94
18697;BME280;22617;43.690;27.956;2023-02-01T16:23:19;98726.44;;;3.63;79.32
18697;BME280;22617;43.690;27.956;2023-02-01T16:28:24;98726.22;;;3.53;78.85
18697;BME280;22617;43.690;27.956;2023-02-01T16:33:28;98729.22;;;3.32;79.98
18697;BME280;22617;43.690;27.956;2023-02-01T16:38:31;98728.97;;;3.18;79.70
18697;BME280;22617;43.690;27.956;2023-02-01T16:43:37;98716.00;;;3.14;79.95
18697;BME280;22617;43.690;27.956;2023-02-01T16:48:42;98723.75;;;3.15;79.88
18697;BME280;22617;43.690;27.956;2023-02-01T16:53:49;98720.41;;;3.19;79.68
18697;BME280;22617;43.690;27.956;2023-02-01T16:58:57;98729.69;;;3.13;79.54
18697;BME280;22617;43.690;27.956;2023-02-01T17:04:01;98731.38;;;3.11;80.14
18697;BME280;22617;43.690;27.956;2023-02-01T17:09:05;98724.25;;;2.99;79.45
18697;BME280;22617;43.690;27.956;2023-02-01T17:14:17;98722.56;;;2.99;80.02
18697;BME280;22617;43.690;27.956;2023-02-01T17:19:22;98729.94;;;2.83;80.15
18697;BME280;22617;43.690;27.956;2023-02-01T17:24:28;98729.81;;;2.78;80.57
18697;BME280;22617;43.690;27.956;2023-02-01T17:29:49;98732.16;;;2.68;80.49
18697;BME280;22617;43.690;27.956;2023-02-01T17:34:52;98736.28;;;2.61;80.69
18697;BME280;22617;43.690;27.956;2023-02-01T17:39:56;98735.66;;;2.71;81.48
18697;BME280;22617;43.690;27.956;2023-02-01T17:45:16;98735.59;;;2.68;80.91
18697;BME280;22617;43.690;27.956;2023-02-01T17:50:26;98733.81;;;2.66;80.90
18697;BME280;22617;43.690;27.956;2023-02-01T17:55:32;98748.31;;;2.62;81.27
18697;BME280;22617;43.690;27.956;2023-02-01T18:00:38;98748.47;;;2.70;81.43
18697;BME280;22617;43.690;27.956;2023-02-01T18:05:42;98752.75;;;2.69;81.43
18697;BME280;22617;43.690;27.956;2023-02-01T18:10:53;98751.75;;;2.62;81.27
18697;BME280;22617;43.690;27.956;2023-02-01T18:16:02;98748.41;;;2.67;80.90
18697;BME280;22617;43.690;27.956;2023-02-01T18:21:06;98748.22;;;2.57;81.52
18697;BME280;22617;43.690;27.956;2023-02-01T18:26:10;98744.72;;;2.55;81.26
18697;BME280;22617;43.690;27.956;2023-02-01T18:31:21;98741.28;;;2.55;81.51
18697;BME280;22617;43.690;27.956;2023-02-01T18:36:26;98740.38;;;2.53;81.91
18697;BME280;22617;43.690;27.956;2023-02-01T18:41:31;98742.91;;;2.51;81.74
18697;BME280;22617;43.690;27.956;2023-02-01T18:46:36;98748.00;;;2.48;81.73
18697;BME280;22617;43.690;27.956;2023-02-01T18:51:41;98748.88;;;2.50;82.08
18697;BME280;22617;43.690;27.956;2023-02-01T18:56:45;98750.47;;;2.44;82.07
18697;BME280;22617;43.690;27.956;2023-02-01T19:01:50;98752.28;;;2.48;81.83
18697;BME280;22617;43.690;27.956;2023-02-01T19:06:54;98756.50;;;2.46;81.86
18697;BME280;22617;43.690;27.956;2023-02-01T19:11:57;98762.47;;;2.45;81.79
18697;BME280;22617;43.690;27.956;2023-02-01T19:17:02;98760.44;;;2.30;81.96
18697;BME280;22617;43.690;27.956;2023-02-01T19:22:05;98760.31;;;2.27;82.73
18697;BME280;22617;43.690;27.956;2023-02-01T19:27:09;98759.78;;;2.40;82.96
18697;BME280;22617;43.690;27.956;2023-02-01T19:32:14;98761.38;;;2.35;82.77
18697;BME280;22617;43.690;27.956;2023-02-01T19:37:17;98768.34;;;2.39;82.70
18697;BME280;22617;43.690;27.956;2023-02-01T19:42:21;98752.72;;;2.30;82.79
18697;BME280;22617;43.690;27.956;2023-02-01T19:47:27;98763.81;;;2.29;82.92
18697;BME280;22617;43.690;27.956;2023-02-01T19:52:31;98748.66;;;2.40;82.84
18697;BME280;22617;43.690;27.956;2023-02-01T19:57:35;98746.22;;;2.46;82.68
18697;BME280;22617;43.690;27.956;2023-02-01T20:02:40;98751.75;;;2.27;82.72
18697;BME280;22617;43.690;27.956;2023-02-01T20:07:43;98745.88;;;2.32;82.96
18697;BME280;22617;43.690;27.956;2023-02-01T20:12:47;98742.34;;;2.27;82.68
18697;BME280;22617;43.690;27.956;2023-02-01T20:17:52;98734.34;;;2.15;83.02
18697;BME280;22617;43.690;27.956;2023-02-01T20:22:56;98747.38;;;2.23;83.38
18697;BME280;22617;43.690;27.956;2023-02-01T20:27:59;98750.63;;;2.15;82.80
18697;BME280;22617;43.690;27.956;2023-02-01T20:33:04;98751.22;;;2.05;83.28
18697;BME280;22617;43.690;27.956;2023-02-01T20:38:14;98760.16;;;2.19;83.53
18697;BME280;22617;43.690;27.956;2023-02-01T20:43:17;98760.28;;;2.26;83.66
18697;BME280;22617;43.690;27.956;2023-02-01T20:48:22;98762.84;;;2.24;83.19
18697;BME280;22617;43.690;27.956;2023-02-01T20:53:26;98755.94;;;2.23;82.89
18697;BME280;22617;43.690;27.956;2023-02-01T20:58:30;98761.56;;;2.08;82.77
18697;BME280;22617;43.690;27.956;2023-02-01T21:03:35;98763.16;;;2.03;82.89
18697;BME280;22617;43.690;27.956;2023-02-01T21:08:39;98761.34;;;1.99;83.19
18697;BME280;22617;43.690;27.956;2023-02-01T21:13:43;98768.06;;;1.94;83.48
18697;BME280;22617;43.690;27.956;2023-02-01T21:18:53;98763.56;;;1.86;83.07
18697;BME280;22617;43.690;27.956;2023-02-01T21:23:57;98766.00;;;1.81;83.10
18697;BME280;22617;43.690;27.956;2023-02-01T21:29:01;98758.19;;;1.77;83.19
18697;BME280;22617;43.690;27.956;2023-02-01T21:34:06;98762.63;;;1.84;82.91
18697;BME280;22617;43.690;27.956;2023-02-01T21:39:10;98753.16;;;1.81;82.57
18697;BME280;22617;43.690;27.956;2023-02-01T21:44:14;98750.44;;;1.75;82.63
18697;BME280;22617;43.690;27.956;2023-02-01T21:49:19;98748.16;;;1.86;82.01
18697;BME280;22617;43.690;27.956;2023-02-01T21:54:23;98757.84;;;1.64;81.70
18697;BME280;22617;43.690;27.956;2023-02-01T21:59:26;98761.84;;;1.55;82.14
18697;BME280;22617;43.690;27.956;2023-02-01T22:04:31;98742.13;;;1.54;81.95
18697;BME280;22617;43.690;27.956;2023-02-01T22:09:35;98739.66;;;1.57;81.76
18697;BME280;22617;43.690;27.956;2023-02-01T22:14:39;98734.44;;;1.54;81.55
18697;BME280;22617;43.690;27.956;2023-02-01T22:19:47;98721.63;;;1.55;81.71
18697;BME280;22617;43.690;27.956;2023-02-01T22:24:50;98711.06;;;1.45;81.45
18697;BME280;22617;43.690;27.956;2023-02-01T22:29:55;98709.38;;;1.45;81.57
18697;BME280;22617;43.690;27.956;2023-02-01T22:35:00;98709.13;;;1.36;81.23
18697;BME280;22617;43.690;27.956;2023-02-01T22:40:07;98717.66;;;1.35;81.53
18697;BME280;22617;43.690;27.956;2023-02-01T22:45:10;98714.44;;;1.42;81.29
18697;BME280;22617;43.690;27.956;2023-02-01T22:50:16;98722.97;;;1.41;81.36
18697;BME280;22617;43.690;27.956;2023-02-01T22:55:19;98726.34;;;1.40;81.25
18697;BME280;22617;43.690;27.956;2023-02-01T23:00:24;98723.84;;;1.42;81.07
18697;BME280;22617;43.690;27.956;2023-02-01T23:05:29;98723.31;;;1.53;81.05
18697;BME280;22617;43.690;27.956;2023-02-01T23:10:33;98717.38;;;1.56;80.61
18697;BME280;22617;43.690;27.956;2023-02-01T23:15:37;98709.72;;;1.57;80.41
18697;BME280;22617;43.690;27.956;2023-02-01T23:20:42;98700.41;;;1.61;80.46
18697;BME280;22617;43.690;27.956;2023-02-01T23:25:48;98699.63;;;1.65;80.39
18697;BME280;22617;43.690;27.956;2023-02-01T23:30:53;98692.09;;;1.71;80.22
18697;BME280;22617;43.690;27.956;2023-02-01T23:35:59;98700.75;;;1.74;79.97
18697;BME280;22617;43.690;27.956;2023-02-01T23:41:05;98700.75;;;1.74;79.82
18697;BME280;22617;43.690;27.956;2023-02-01T23:46:10;98705.88;;;1.74;79.76
18697;BME280;22617;43.690;27.956;2023-02-01T23:51:16;98703.47;;;1.81;80.00
18697;BME280;22617;43.690;27.956;2023-02-01T23:56:21;98697.31;;;1.74;79.64
